Time;durP1;ratioP1;P1;durP2;ratioP2;P2;SDS_P1;SDS_P2;PMS_P1;PMS_P2;Temp;Humidity;BMP_temperature;BMP_pressure;BME280_temperature;BME280_humidity;BME280_pressure;Samples;Min_cycle;Max_cycle;Signal;HPM_P1;HPM_P2
2022/09/09 04:16:12;;;;;;;0.60;0.50;;;;;;;14.56;100.00;99815.38;5611724;23;20057;-65
2022/09/09 04:18:38;;;;;;;;;;;;;;;14.59;100.00;99816.81;5013764;28;20038;-64
2022/09/09 04:21:05;;;;;;;0.68;0.68;;;;;;;14.58;100.00;99815.16;5011767;28;19924;-65
2022/09/09 04:23:33;;;;;;;;;;;;;;;14.61;100.00;99822.78;5012112;28;20029;-66
2022/09/09 04:26:01;;;;;;;1.55;0.82;;;;;;;14.59;100.00;99828.34;5004972;28;20633;-64
2022/09/09 04:28:30;;;;;;;1.15;0.70;;;;;;;14.59;100.00;99830.19;4992315;28;20500;-65
2022/09/09 04:30:57;;;;;;;0.85;0.68;;;;;;;14.62;100.00;99824.44;4992506;28;20045;-65
2022/09/09 04:33:26;;;;;;;0.98;0.70;;;;;;;14.64;100.00;99827.72;4992093;28;20042;-65
2022/09/09 04:35:53;;;;;;;1.80;0.77;;;;;;;14.65;100.00;99824.81;4992019;28;20129;-65
2022/09/09 04:38:22;;;;;;;0.52;0.50;;;;;;;14.67;100.00;99840.72;4991962;28;20038;-65
2022/09/09 04:40:51;;;;;;;2.10;0.88;;;;;;;14.61;100.00;99833.53;4991824;28;20042;-65
2022/09/09 04:43:17;;;;;;;0.93;0.68;;;;;;;14.61;100.00;99837.03;4991886;28;20400;-64
2022/09/09 04:45:46;;;;;;;1.88;0.82;;;;;;;14.62;100.00;99845.88;4992020;28;20556;-65
2022/09/09 04:48:12;;;;;;;2.25;0.90;;;;;;;14.65;100.00;99853.50;4991895;28;20531;-65
2022/09/09 04:50:37;;;;;;;1.15;0.70;;;;;;;14.62;100.00;99849.38;4991470;28;20046;-65
2022/09/09 04:53:07;;;;;;;4.18;0.80;;;;;;;14.70;100.00;99847.50;4991773;28;20035;-65
2022/09/09 04:55:35;;;;;;;1.45;0.70;;;;;;;14.73;100.00;99847.06;4991748;28;20121;-65
2022/09/09 04:58:08;;;;;;;0.63;0.63;;;;;;;14.72;100.00;99846.25;4992045;28;20130;-65
2022/09/09 05:00:37;;;;;;;1.55;0.85;;;;;;;14.76;100.00;99849.34;4991448;28;20509;-65
2022/09/09 05:03:08;;;;;;;2.45;1.20;;;;;;;14.79;100.00;99856.97;4960168;28;20038;-65
2022/09/09 05:05:35;;;;;;;1.38;0.80;;;;;;;14.82;100.00;99856.56;4991577;28;20039;-64
2022/09/09 05:08:05;;;;;;;2.38;1.40;;;;;;;14.79;100.00;99851.59;4991655;28;20034;-65
2022/09/09 05:10:32;;;;;;;3.42;1.20;;;;;;;14.81;100.00;99847.69;4992454;28;20070;-65
2022/09/09 05:12:58;;;;;;;4.60;1.58;;;;;;;14.87;100.00;99854.91;4991357;28;20038;-65
2022/09/09 05:15:26;;;;;;;3.55;1.42;;;;;;;14.87;100.00;99859.44;4991331;28;20042;-65
2022/09/09 05:17:55;;;;;;;2.92;1.17;;;;;;;14.96;100.00;99862.72;4991363;28;20034;-65
2022/09/09 05:20:21;;;;;;;1.48;1.00;;;;;;;15.01;100.00;99868.28;4991295;28;20480;-65
2022/09/09 05:22:47;;;;;;;1.50;0.90;;;;;;;15.01;100.00;99866.41;4991288;28;20516;-65
2022/09/09 05:25:13;;;;;;;2.67;0.80;;;;;;;15.03;100.00;99863.50;4991251;28;20037;-65
2022/09/09 05:27:39;;;;;;;1.75;0.85;;;;;;;15.04;100.00;99868.66;4991227;28;20030;-65
2022/09/09 05:30:05;;;;;;;0.50;0.50;;;;;;;15.05;100.00;99870.28;4991112;28;20041;-64
2022/09/09 05:32:33;;;;;;;1.92;0.77;;;;;;;15.10;100.00;99875.03;4990993;28;20038;-65
2022/09/09 05:34:58;;;;;;;;;;;;;;;15.11;100.00;99879.38;4975371;28;20043;-65
2022/09/09 05:37:24;;;;;;;1.27;0.82;;;;;;;15.12;100.00;99878.31;4991103;28;19924;-69
2022/09/09 05:39:50;;;;;;;0.90;0.68;;;;;;;15.16;100.00;99875.00;4993285;28;20038;-68
2022/09/09 05:42:16;;;;;;;1.25;0.80;;;;;;;15.18;100.00;99880.97;4992082;28;20038;-69
2022/09/09 05:44:44;;;;;;;4.28;1.30;;;;;;;15.22;100.00;99877.88;4993306;28;20026;-68
2022/09/09 05:47:10;;;;;;;4.22;1.02;;;;;;;15.26;100.00;99882.63;4991218;28;20038;-68
2022/09/09 05:49:36;;;;;;;0.70;0.65;;;;;;;15.26;100.00;99885.31;4990144;28;20382;-60
2022/09/09 05:52:03;;;;;;;1.40;1.10;;;;;;;15.29;100.00;99884.06;4992004;28;20035;-57
2022/09/09 05:54:29;;;;;;;2.67;0.95;;;;;;;15.33;100.00;99875.38;4974371;28;20046;-59
2022/09/09 05:56:55;;;;;;;2.17;1.20;;;;;;;15.39;100.00;99874.53;4990996;28;20053;-58
2022/09/09 05:59:23;;;;;;;1.88;1.08;;;;;;;15.47;100.00;99882.31;4990915;28;20046;-59
2022/09/09 06:01:50;;;;;;;8.32;1.60;;;;;;;15.57;100.00;99878.34;4991191;28;20133;-59
2022/09/09 06:04:24;;;;;;;4.00;1.00;;;;;;;15.68;100.00;99889.25;4990953;28;20054;-59
2022/09/09 06:06:50;;;;;;;1.98;0.93;;;;;;;15.78;100.00;99886.13;4990807;28;20097;-59
2022/09/09 06:09:18;;;;;;;1.98;1.13;;;;;;;15.87;100.00;99887.50;4992157;28;20262;-56
2022/09/09 06:11:44;;;;;;;1.58;1.13;;;;;;;16.02;100.00;99895.25;4991949;28;20066;-59
2022/09/09 06:14:10;;;;;;;0.70;0.65;;;;;;;16.17;99.53;99889.56;4990655;28;20081;-58
2022/09/09 06:16:37;;;;;;;1.40;0.90;;;;;;;16.21;98.99;99893.47;5007015;28;20505;-60
2022/09/09 06:19:06;;;;;;;1.50;1.30;;;;;;;16.29;96.27;99885.13;4990621;28;20045;-60
2022/09/09 06:21:36;;;;;;;0.82;0.65;;;;;;;16.35;97.52;99886.13;4990545;28;20026;-59
2022/09/09 06:24:04;;;;;;;2.28;0.80;;;;;;;16.38;97.04;99883.00;4990841;28;20066;-59
2022/09/09 06:26:42;;;;;;;0.90;0.60;;;;;;;16.42;97.32;99885.00;4990646;28;20046;-60
2022/09/09 06:29:11;;;;;;;3.78;0.88;;;;;;;16.46;97.34;99880.84;4990689;28;20104;-58
2022/09/09 06:31:38;;;;;;;3.83;0.93;;;;;;;16.50;97.30;99882.06;4991750;28;20489;-59
2022/09/09 06:34:10;;;;;;;8.35;1.35;;;;;;;16.54;95.25;99880.56;4990556;28;20035;-61
2022/09/09 06:36:39;;;;;;;1.13;0.88;;;;;;;16.63;95.20;99885.69;4990282;28;20042;-58
2022/09/09 06:39:07;;;;;;;2.50;1.10;;;;;;;16.70;94.33;99892.66;4990589;28;20033;-59
2022/09/09 06:41:33;;;;;;;2.80;1.33;;;;;;;16.76;93.97;99888.28;4990394;28;20073;-58
2022/09/09 06:44:00;;;;;;;3.15;1.65;;;;;;;16.80;93.09;99878.69;4990484;28;20038;-59
2022/09/09 06:46:35;;;;;;;3.50;1.20;;;;;;;16.90;94.52;99883.59;4990577;28;20077;-59
2022/09/09 06:49:02;;;;;;;3.63;0.98;;;;;;;16.97;93.04;99884.34;4990555;28;20070;-58
2022/09/09 06:51:34;;;;;;;2.00;1.00;;;;;;;17.02;91.10;99879.94;4990084;28;20053;-59
2022/09/09 06:54:02;;;;;;;1.55;0.90;;;;;;;17.11;90.33;99882.31;4990353;28;20034;-59
2022/09/09 06:56:29;;;;;;;;;;;;;;;17.15;91.53;99886.19;4990788;28;20509;-59
2022/09/09 06:59:03;;;;;;;5.68;1.55;;;;;;;17.18;92.04;99885.75;4990463;28;20019;-60
2022/09/09 07:01:33;;;;;;;3.22;0.93;;;;;;;17.21;93.52;99896.03;4990187;28;20042;-56
2022/09/09 07:04:04;;;;;;;2.80;0.93;;;;;;;17.23;93.39;99891.28;4990358;28;20026;-59
2022/09/09 07:06:45;;;;;;;2.42;1.10;;;;;;;17.28;92.31;99894.13;4993425;28;20115;-59
2022/09/09 07:09:16;;;;;;;1.13;0.70;;;;;;;17.35;91.62;99890.31;4993962;28;20088;-60
2022/09/09 07:11:45;;;;;;;3.75;1.00;;;;;;;17.44;90.92;99890.81;4993621;28;20031;-59
2022/09/09 07:14:13;;;;;;;5.18;0.93;;;;;;;17.56;91.08;99886.28;4977720;28;20572;-57
2022/09/09 07:16:43;;;;;;;3.10;0.90;;;;;;;17.67;93.64;99883.88;4993768;28;20038;-61
2022/09/09 07:19:10;;;;;;;2.30;1.00;;;;;;;17.75;92.26;99879.03;4993903;28;20057;-61
2022/09/09 07:21:36;;;;;;;2.67;1.13;;;;;;;17.79;92.96;99882.88;4993846;28;20042;-57
2022/09/09 07:24:02;;;;;;;2.80;0.95;;;;;;;17.86;93.40;99898.97;4994362;28;20520;-59
2022/09/09 07:26:30;;;;;;;2.08;1.00;;;;;;;17.87;93.65;99893.38;4994123;28;20030;-59
2022/09/09 07:28:58;;;;;;;1.42;0.90;;;;;;;17.90;95.31;99897.47;4993669;28;20088;-60
2022/09/09 07:31:30;;;;;;;3.90;1.25;;;;;;;17.94;91.24;99898.66;4993731;28;20437;-59
2022/09/09 07:33:56;;;;;;;1.75;0.52;;;;;;;17.97;90.50;99903.56;4993818;28;20042;-59
2022/09/09 07:36:23;;;;;;;1.33;0.93;;;;;;;17.99;90.20;99906.84;4993677;28;20042;-59
2022/09/09 07:38:54;;;;;;;1.00;0.50;;;;;;;18.02;89.13;99895.63;4993805;28;20397;-59
2022/09/09 07:41:44;;;;;;;1.10;0.88;;;;;;;18.01;87.73;99893.16;4993553;28;20061;-57
2022/09/09 07:44:21;;;;;;;4.43;1.02;;;;;;;18.08;88.92;99899.28;4993315;28;20117;-59
2022/09/09 07:46:49;;;;;;;2.45;1.08;;;;;;;18.10;87.72;99897.97;4993221;28;20050;-57
2022/09/09 07:49:19;;;;;;;2.90;0.80;;;;;;;18.21;85.56;99898.25;4993279;28;20069;-57
2022/09/09 07:51:47;;;;;;;3.78;0.70;;;;;;;18.31;86.66;99906.59;4992891;28;20054;-59
2022/09/09 07:54:16;;;;;;;1.02;0.93;;;;;;;18.27;87.86;99908.94;4993026;28;20088;-56
2022/09/09 07:56:43;;;;;;;1.85;1.08;;;;;;;18.26;85.89;99906.47;4992915;28;20034;-60
2022/09/09 07:59:10;;;;;;;4.17;0.90;;;;;;;18.34;85.89;99898.88;4993360;28;20045;-60
2022/09/09 08:01:48;;;;;;;1.35;0.75;;;;;;;18.46;85.85;99904.28;4992853;28;20277;-60
2022/09/09 08:04:19;;;;;;;1.20;1.02;;;;;;;18.58;85.73;99897.03;4993057;28;20088;-56
2022/09/09 08:06:58;;;;;;;2.00;1.10;;;;;;;18.68;84.93;99905.38;4992901;28;20031;-61
2022/09/09 08:09:26;;;;;;;2.08;1.13;;;;;;;18.83;83.18;99912.97;4994265;28;20117;-59
2022/09/09 08:11:53;;;;;;;2.03;0.57;;;;;;;18.97;82.52;99914.41;4992767;28;20044;-59
2022/09/09 08:14:18;;;;;;;2.63;0.90;;;;;;;19.05;81.41;99909.69;4992545;28;20034;-58
2022/09/09 08:16:47;;;;;;;1.30;0.88;;;;;;;19.20;81.32;99918.13;4991593;28;20037;-58
2022/09/09 08:19:16;;;;;;;0.80;0.50;;;;;;;19.24;79.55;99911.19;4992603;28;20581;-60
2022/09/09 08:21:44;;;;;;;1.80;0.93;;;;;;;19.28;80.01;99919.63;4992331;28;20030;-59
2022/09/09 08:24:12;;;;;;;1.20;0.77;;;;;;;19.33;78.90;99920.56;4992767;28;20030;-59
2022/09/09 08:26:45;;;;;;;0.55;0.55;;;;;;;19.32;80.58;99920.81;4994111;28;20066;-56
2022/09/09 08:29:12;;;;;;;1.60;0.70;;;;;;;19.32;78.81;99927.03;5008721;28;20045;-58
2022/09/09 08:31:49;;;;;;;3.88;1.10;;;;;;;19.19;81.41;99944.28;4992121;28;20109;-61
2022/09/09 08:34:16;;;;;;;1.08;0.80;;;;;;;18.90;84.39;99950.63;4992447;28;20048;-60
2022/09/09 08:36:43;;;;;;;1.73;1.08;;;;;;;18.50;86.39;99945.88;4992229;28;20175;-60
2022/09/09 08:39:14;;;;;;;2.33;0.90;;;;;;;18.13;87.58;99939.84;4992140;28;20454;-59
2022/09/09 08:42:11;;;;;;;1.75;1.20;;;;;;;17.98;90.30;99955.59;4992249;28;20413;-60
2022/09/09 08:44:45;;;;;;;3.50;0.90;;;;;;;17.89;91.53;99949.72;4992357;28;20080;-60
2022/09/09 08:47:35;;;;;;;2.17;0.77;;;;;;;17.97;90.09;99946.69;4992002;28;20039;-60
2022/09/09 08:50:35;;;;;;;1.70;1.02;;;;;;;18.03;92.29;99951.16;4992041;28;20042;-60
2022/09/09 08:53:32;;;;;;;3.03;0.90;;;;;;;18.24;91.36;99951.69;4992019;28;20043;-59
2022/09/09 08:56:01;;;;;;;3.58;0.98;;;;;;;18.46;91.89;99960.91;4991926;28;20390;-61
2022/09/09 08:58:49;;;;;;;1.20;1.10;;;;;;;18.54;91.61;99952.47;4991863;28;20034;-60
2022/09/09 09:01:35;;;;;;;3.45;1.10;;;;;;;18.61;88.99;99947.78;4991431;28;20034;-58
2022/09/09 09:04:27;;;;;;;2.50;0.90;;;;;;;18.64;89.21;99954.56;4991999;28;20054;-61
2022/09/09 09:07:33;;;;;;;2.83;0.90;;;;;;;18.61;87.72;99953.19;4983677;28;20100;-58
2022/09/09 09:10:20;;;;;;;2.25;0.80;;;;;;;18.69;88.20;99952.03;4971244;28;20052;-57
2022/09/09 09:12:47;;;;;;;2.70;1.05;;;;;;;18.77;87.20;99948.19;4992935;28;20105;-58
2022/09/09 09:15:26;;;;;;;1.83;0.90;;;;;;;18.73;90.50;99936.22;4991339;28;20038;-57
2022/09/09 09:17:53;;;;;;;3.65;0.85;;;;;;;18.78;90.31;99933.63;4991524;28;20038;-58
2022/09/09 09:20:32;;;;;;;4.60;1.10;;;;;;;18.80;90.67;99928.84;4991373;28;20521;-57
2022/09/09 09:23:02;;;;;;;0.98;0.75;;;;;;;18.90;91.62;99937.16;4991701;28;20038;-60
2022/09/09 09:25:34;;;;;;;1.75;1.13;;;;;;;19.02;92.96;99932.56;4991162;28;20129;-61
2022/09/09 09:28:05;;;;;;;5.53;0.98;;;;;;;19.13;90.72;99941.72;4975121;28;20030;-59
2022/09/09 09:30:39;;;;;;;1.98;0.90;;;;;;;19.42;84.65;99931.78;4990971;28;20038;-61
2022/09/09 09:33:40;;;;;;;1.85;0.90;;;;;;;19.56;78.81;99935.91;4991198;28;20031;-58
2022/09/09 09:36:08;;;;;;;3.35;0.90;;;;;;;19.70;82.72;99937.28;4988306;28;20520;-59
2022/09/09 09:38:35;;;;;;;1.85;0.90;;;;;;;20.05;80.20;99941.72;4991244;28;20022;-60
2022/09/09 09:41:01;;;;;;;0.98;0.65;;;;;;;20.19;78.48;99937.63;4990962;28;20034;-59
2022/09/09 09:43:36;;;;;;;1.08;0.60;;;;;;;20.22;77.06;99947.97;4991253;28;20034;-58
2022/09/09 09:46:17;;;;;;;;;;;;;;;20.48;78.05;99940.34;4991645;28;20401;-56
2022/09/09 09:48:46;;;;;;;1.13;0.65;;;;;;;20.70;75.92;99943.94;4991046;28;19917;-55
2022/09/09 09:51:15;;;;;;;;;;;;;;;20.94;76.02;99933.75;4991236;28;20084;-59
2022/09/09 09:53:42;;;;;;;2.60;0.90;;;;;;;21.28;72.17;99939.94;5023941;28;19918;-58
2022/09/09 09:56:13;;;;;;;0.95;0.60;;;;;;;21.58;71.88;99935.94;4991064;28;20413;-56
2022/09/09 09:58:45;;;;;;;2.38;0.88;;;;;;;22.04;68.55;99942.72;4990956;28;20034;-55
2022/09/09 10:01:27;;;;;;;1.73;0.88;;;;;;;22.32;64.33;99932.69;4990606;28;20505;-58
2022/09/09 10:03:57;;;;;;;1.15;0.90;;;;;;;22.78;64.77;99931.16;4992352;28;20034;-58
2022/09/09 10:06:34;;;;;;;1.58;0.75;;;;;;;23.36;63.83;99937.50;4990884;28;20048;-58
2022/09/09 10:09:02;;;;;;;1.02;0.60;;;;;;;23.50;63.86;99933.19;4992312;28;20453;-58
2022/09/09 10:12:06;;;;;;;2.15;0.82;;;;;;;23.82;57.17;99932.25;4991680;28;20038;-58
2022/09/09 10:14:41;;;;;;;4.13;0.70;;;;;;;23.96;55.06;99921.69;4971209;28;20047;-57
2022/09/09 10:17:27;;;;;;;1.80;0.82;;;;;;;24.26;58.10;99913.56;4991984;28;20054;-59
2022/09/09 10:20:04;;;;;;;2.90;0.80;;;;;;;24.25;54.50;99927.41;4991989;28;20491;-62
2022/09/09 10:22:34;;;;;;;1.58;0.55;;;;;;;23.75;56.53;99918.09;4991896;28;20034;-57
2022/09/09 10:25:31;;;;;;;2.60;0.50;;;;;;;23.28;55.56;99913.56;4992053;28;20033;-60
2022/09/09 10:28:15;;;;;;;0.93;0.50;;;;;;;22.88;57.40;99908.69;4992034;28;20495;-57
2022/09/09 10:31:19;;;;;;;1.27;0.43;;;;;;;22.85;59.10;99899.16;4992639;28;20397;-64
2022/09/09 10:33:56;;;;;;;0.75;0.50;;;;;;;22.70;56.67;99901.78;4992250;28;20052;-63
2022/09/09 10:36:25;;;;;;;0.93;0.57;;;;;;;22.78;59.64;99903.19;4992216;28;20088;-63
2022/09/09 10:39:05;;;;;;;2.72;0.75;;;;;;;22.95;57.56;99901.13;4992144;28;20397;-63
2022/09/09 10:42:05;;;;;;;1.63;0.80;;;;;;;22.23;58.43;99909.81;4995656;28;20382;-63
2022/09/09 10:44:49;;;;;;;1.55;0.60;;;;;;;22.16;60.15;99918.97;4996239;28;20041;-63
2022/09/09 10:47:32;;;;;;;1.25;0.47;;;;;;;22.37;59.38;99913.75;4995793;28;20096;-63
2022/09/09 10:50:20;;;;;;;1.55;0.60;;;;;;;23.20;57.99;99912.13;4995902;28;20034;-63
2022/09/09 10:53:13;;;;;;;1.67;0.70;;;;;;;24.14;56.48;99910.28;4995917;28;20046;-62
2022/09/09 10:55:42;;;;;;;3.42;0.52;;;;;;;24.69;50.53;99916.81;4996020;28;20043;-61
2022/09/09 10:58:15;;;;;;;1.48;0.88;;;;;;;25.30;48.41;99916.72;4997639;28;20070;-63
2022/09/09 11:01:04;;;;;;;2.47;0.50;;;;;;;25.21;50.36;99923.00;4997228;28;20057;-63
2022/09/09 11:03:31;;;;;;;1.92;0.63;;;;;;;24.26;48.42;99912.75;4996345;28;20042;-62
2022/09/09 11:06:04;;;;;;;1.25;0.60;;;;;;;23.87;49.84;99920.59;4996342;28;20141;-63
2022/09/09 11:08:33;;;;;;;1.15;0.63;;;;;;;23.51;53.00;99912.28;4995834;28;20049;-63
2022/09/09 11:11:26;;;;;;;1.48;0.50;;;;;;;23.73;51.77;99912.91;4995931;28;20045;-62
2022/09/09 11:13:51;;;;;;;0.95;0.50;;;;;;;24.62;50.28;99910.84;4995445;28;20041;-63
2022/09/09 11:16:31;;;;;;;0.30;0.30;;;;;;;24.99;49.40;99898.81;4995190;28;20437;-63
2022/09/09 11:19:11;;;;;;;1.02;0.90;;;;;;;25.50;48.25;99913.09;4995443;28;20062;-63
2022/09/09 11:21:49;;;;;;;0.75;0.50;;;;;;;25.67;47.56;99913.53;4995243;28;20034;-63
2022/09/09 11:24:40;;;;;;;0.55;0.47;;;;;;;25.23;48.01;99905.28;4995986;28;20045;-62
2022/09/09 11:27:21;;;;;;;0.98;0.30;;;;;;;24.55;49.34;99896.69;4995691;28;20038;-63
2022/09/09 11:30:14;;;;;;;2.58;0.60;;;;;;;23.95;51.46;99901.81;4995253;28;20042;-62
2022/09/09 11:33:02;;;;;;;2.65;0.35;;;;;;;23.37;53.08;99905.69;4994399;28;20034;-63
2022/09/09 11:35:44;;;;;;;1.13;0.50;;;;;;;22.70;55.22;99907.22;4995310;28;20074;-63
2022/09/09 11:38:17;;;;;;;0.68;0.50;;;;;;;22.34;57.14;99898.78;4995517;28;20057;-62
2022/09/09 11:40:44;;;;;;;1.33;0.65;;;;;;;22.16;57.37;99894.56;4994778;28;20084;-62
2022/09/09 11:43:12;;;;;;;2.23;0.93;;;;;;;22.05;58.13;99897.44;4994603;28;20046;-62
2022/09/09 11:45:40;;;;;;;0.93;0.73;;;;;;;22.04;58.67;99895.75;4995136;28;20484;-62
2022/09/09 11:48:24;;;;;;;0.60;0.60;;;;;;;21.67;58.98;99885.66;4995264;28;20034;-63
2022/09/09 11:51:10;;;;;;;0.60;0.40;;;;;;;21.71;60.52;99885.94;4994407;28;20034;-63
2022/09/09 11:53:49;;;;;;;2.95;0.73;;;;;;;21.50;59.48;99876.78;4995183;28;20062;-62
2022/09/09 11:56:34;;;;;;;3.28;0.80;;;;;;;21.55;59.78;99884.97;4995449;28;20026;-62
2022/09/09 11:59:21;;;;;;;0.90;0.60;;;;;;;22.61;58.29;99868.84;4994461;28;20046;-63
2022/09/09 12:01:49;;;;;;;;;;;;;;;23.59;55.72;99867.44;4994350;28;20069;-63
2022/09/09 12:04:24;;;;;;;0.47;0.45;;;;;;;24.54;53.13;99865.94;4994081;28;19937;-57
2022/09/09 12:06:59;;;;;;;0.85;0.50;;;;;;;25.39;50.98;99868.69;4994508;28;20034;-56
2022/09/09 12:09:48;;;;;;;0.88;0.75;;;;;;;25.34;48.09;99862.44;4994953;28;20046;-62
2022/09/09 12:12:13;;;;;;;0.75;0.68;;;;;;;25.54;48.25;99867.78;4994992;28;20041;-63
2022/09/09 12:14:55;;;;;;;0.80;0.50;;;;;;;25.79;47.46;99852.41;4994498;28;20417;-63
2022/09/09 12:17:23;;;;;;;2.13;0.85;;;;;;;25.68;48.10;99857.06;4995549;28;20042;-63
2022/09/09 12:20:19;;;;;;;0.80;0.47;;;;;;;24.64;47.78;99852.28;4994615;28;20125;-63
2022/09/09 12:22:57;;;;;;;2.83;0.60;;;;;;;23.81;50.92;99859.91;4995506;28;20105;-63
2022/09/09 12:25:39;;;;;;;1.95;0.75;;;;;;;23.38;51.31;99852.97;4995668;28;20394;-63
2022/09/09 12:28:11;;;;;;;1.65;0.40;;;;;;;23.52;51.99;99854.09;4995946;28;20042;-63
2022/09/09 12:30:42;;;;;;;1.65;0.68;;;;;;;23.14;51.34;99863.47;4994889;28;20081;-63
2022/09/09 12:33:12;;;;;;;0.93;0.65;;;;;;;23.05;52.07;99854.22;4994237;28;20031;-63
2022/09/09 12:35:40;;;;;;;1.13;0.52;;;;;;;22.70;50.58;99848.31;4994606;28;20065;-63
2022/09/09 12:38:07;;;;;;;;;;;;;;;22.79;50.78;99854.06;4994813;28;20039;-61
2022/09/09 12:40:35;;;;;;;;;;;;;;;23.49;51.79;99850.03;4994846;28;20419;-62
2022/09/09 12:43:02;;;;;;;0.52;0.40;;;;;;;24.57;48.03;99853.66;4992545;28;19917;-62
2022/09/09 12:45:32;;;;;;;2.30;0.68;;;;;;;24.90;45.89;99849.50;4994581;28;20045;-63
2022/09/09 12:48:03;;;;;;;0.20;0.20;;;;;;;24.39;47.00;99848.78;4994923;28;20093;-61
2022/09/09 12:50:35;;;;;;;1.58;0.40;;;;;;;23.71;48.36;99863.41;4994042;28;20489;-62
2022/09/09 12:53:28;;;;;;;2.67;0.50;;;;;;;22.09;62.02;99891.25;4994888;28;20038;-62
2022/09/09 12:56:02;;;;;;;3.85;0.75;;;;;;;19.24;90.16;99879.63;4989087;28;20046;-63
2022/09/09 12:58:32;;;;;;;3.58;0.80;;;;;;;18.88;92.52;99869.09;4993384;28;20034;-65
2022/09/09 13:00:59;;;;;;;0.55;0.50;;;;;;;19.30;95.31;99866.19;4993146;28;20133;-64
2022/09/09 13:03:26;;;;;;;2.72;0.55;;;;;;;20.04;90.45;99861.69;4992801;28;20073;-63
2022/09/09 13:05:53;;;;;;;0.35;0.25;;;;;;;20.18;80.31;99864.88;4993141;28;20490;-63
2022/09/09 13:08:22;;;;;;;1.30;0.47;;;;;;;19.83;83.58;99851.59;4993629;28;20050;-64
2022/09/09 13:10:55;;;;;;;1.10;0.70;;;;;;;19.48;87.50;99850.63;4993478;28;20500;-64
2022/09/09 13:13:29;;;;;;;0.63;0.45;;;;;;;19.31;86.91;99848.97;4993491;28;20039;-64
2022/09/09 13:16:00;;;;;;;0.85;0.50;;;;;;;19.15;87.54;99851.34;4993545;28;20034;-63
2022/09/09 13:18:33;;;;;;;0.40;0.32;;;;;;;19.00;86.96;99856.41;4993947;28;20053;-63
2022/09/09 13:20:59;;;;;;;1.05;0.60;;;;;;;18.80;93.94;99856.81;4991753;28;20449;-63
2022/09/09 13:23:31;;;;;;;3.28;0.80;;;;;;;18.56;100.00;99852.44;4992943;28;20038;-63
2022/09/09 13:26:04;;;;;;;3.30;0.60;;;;;;;18.77;95.21;99837.56;4993185;28;20125;-63
2022/09/09 13:28:30;;;;;;;1.63;0.57;;;;;;;18.99;86.26;99827.78;4992734;28;20034;-63
2022/09/09 13:31:01;;;;;;;2.27;0.83;;;;;;;18.99;83.01;99825.09;4992471;28;20460;-62
2022/09/09 13:33:36;;;;;;;0.50;0.30;;;;;;;19.88;76.80;99830.03;4992774;28;20361;-62
2022/09/09 13:36:07;;;;;;;3.83;1.33;;;;;;;20.24;79.47;99818.75;4992719;28;20092;-62
2022/09/09 13:38:40;;;;;;;1.77;0.57;;;;;;;20.28;76.20;99824.50;4992766;28;20069;-64
2022/09/09 13:41:08;;;;;;;2.38;0.70;;;;;;;20.20;77.66;99814.88;4992740;28;20419;-62
2022/09/09 13:43:45;;;;;;;2.03;0.68;;;;;;;20.03;78.13;99819.50;4992767;28;20034;-64
2022/09/09 13:46:40;;;;;;;0.50;0.50;;;;;;;19.81;80.34;99827.47;4992530;28;20058;-61
2022/09/09 13:49:11;;;;;;;0.75;0.55;;;;;;;19.60;81.96;99826.31;4992606;28;20064;-63
2022/09/09 13:51:50;;;;;;;0.82;0.60;;;;;;;19.62;85.68;99824.19;4992245;28;20169;-62
2022/09/09 13:54:18;;;;;;;0.85;0.77;;;;;;;19.75;85.87;99815.75;4992378;28;20441;-63
2022/09/09 13:56:44;;;;;;;9.52;1.10;;;;;;;19.98;87.62;99814.81;4992179;28;20041;-63
2022/09/09 13:59:19;;;;;;;0.47;0.47;;;;;;;20.08;85.13;99810.63;4992360;28;20552;-63
2022/09/09 14:01:45;;;;;;;1.13;0.50;;;;;;;20.24;82.76;99815.22;4991964;28;20046;-63
2022/09/09 14:04:11;;;;;;;3.72;0.73;;;;;;;20.25;81.88;99806.84;4992320;28;20041;-63
2022/09/09 14:06:38;;;;;;;1.95;0.75;;;;;;;20.42;79.00;99819.56;4992157;28;20120;-63
2022/09/09 14:09:04;;;;;;;2.33;0.80;;;;;;;20.36;81.55;99815.13;4992226;28;20117;-63
2022/09/09 14:11:30;;;;;;;2.10;0.70;;;;;;;20.42;85.17;99820.38;4991851;28;20401;-62
2022/09/09 14:13:55;;;;;;;0.68;0.60;;;;;;;20.46;82.24;99810.72;4992090;28;20042;-62
2022/09/09 14:16:21;;;;;;;1.45;0.80;;;;;;;20.30;87.62;99819.66;4995273;28;20045;-62
2022/09/09 14:18:47;;;;;;;4.50;1.00;;;;;;;20.27;87.53;99823.66;4996280;28;20551;-62
2022/09/09 14:21:14;;;;;;;0.73;0.68;;;;;;;20.20;88.47;99835.69;4996176;28;20133;-63
2022/09/09 14:23:40;;;;;;;0.40;0.40;;;;;;;20.02;82.22;99817.88;4996499;28;20446;-63
2022/09/09 14:26:06;;;;;;;1.27;0.95;;;;;;;19.63;79.96;99836.66;4996275;28;20398;-63
2022/09/09 14:28:31;;;;;;;3.55;0.75;;;;;;;19.45;82.00;99845.72;4996301;28;20069;-63
2022/09/09 14:31:00;;;;;;;0.38;0.35;;;;;;;19.43;84.04;99830.81;4995867;28;20051;-63
2022/09/09 14:33:28;;;;;;;1.00;0.77;;;;;;;19.62;84.54;99837.69;4995817;28;20089;-62
2022/09/09 14:36:02;;;;;;;0.70;0.45;;;;;;;19.64;84.01;99835.59;4995902;28;20061;-63
2022/09/09 14:38:34;;;;;;;0.60;0.52;;;;;;;19.53;80.63;99826.44;4995910;28;20034;-63
2022/09/09 14:41:03;;;;;;;0.57;0.55;;;;;;;19.36;84.17;99835.53;4995193;28;20058;-63
2022/09/09 14:43:29;;;;;;;2.65;0.77;;;;;;;19.23;84.61;99845.56;4995904;28;20093;-62
2022/09/09 14:45:55;;;;;;;0.70;0.50;;;;;;;19.34;81.73;99843.88;4995706;28;20474;-62
2022/09/09 14:48:21;;;;;;;2.25;1.02;;;;;;;19.34;82.88;99848.47;4995681;28;20100;-63
2022/09/09 14:50:46;;;;;;;2.30;0.70;;;;;;;19.10;86.62;99870.13;4994121;28;20074;-63
2022/09/09 14:53:12;;;;;;;1.42;0.98;;;;;;;19.04;88.28;99883.75;4995610;28;20074;-61
2022/09/09 14:55:38;;;;;;;1.20;0.57;;;;;;;18.69;92.75;99895.41;4995357;28;20039;-61
2022/09/09 14:58:05;;;;;;;1.50;0.55;;;;;;;18.35;97.40;99887.03;4994180;28;20485;-62
2022/09/09 15:00:30;;;;;;;0.93;0.63;;;;;;;18.25;97.12;99878.66;4994843;28;20057;-63
2022/09/09 15:02:56;;;;;;;2.15;0.85;;;;;;;18.18;96.64;99862.59;4995244;28;20038;-61
2022/09/09 15:05:22;;;;;;;1.13;0.70;;;;;;;18.08;99.31;99845.38;4994488;28;20054;-59
2022/09/09 15:07:50;;;;;;;1.25;0.73;;;;;;;17.87;99.18;99850.25;4995246;28;20045;-60
2022/09/09 15:10:17;;;;;;;2.35;0.57;;;;;;;17.97;99.31;99846.16;4994910;28;20101;-59
2022/09/09 15:12:43;;;;;;;0.95;0.70;;;;;;;17.84;100.00;99853.41;4995195;28;20038;-62
2022/09/09 15:15:09;;;;;;;0.93;0.65;;;;;;;17.85;100.00;99852.34;4995024;28;20073;-62
2022/09/09 15:17:35;;;;;;;0.93;0.68;;;;;;;17.82;100.00;99843.91;4995120;28;20034;-59
2022/09/09 15:20:03;;;;;;;1.17;0.68;;;;;;;17.99;100.00;99862.91;4994840;28;20129;-59
2022/09/09 15:22:28;;;;;;;1.98;1.08;;;;;;;18.01;99.48;99872.44;4995091;28;20424;-59
2022/09/09 15:24:54;;;;;;;2.22;1.45;;;;;;;18.19;100.00;99868.81;4994988;28;20034;-62
2022/09/09 15:27:19;;;;;;;1.92;1.10;;;;;;;18.26;96.07;99872.25;4994484;28;20066;-62
2022/09/09 15:29:44;;;;;;;1.83;0.57;;;;;;;18.41;93.53;99874.50;4994930;28;20038;-59
2022/09/09 15:32:10;;;;;;;1.20;0.60;;;;;;;18.57;95.16;99875.66;4994676;28;20042;-59
2022/09/09 15:34:35;;;;;;;1.13;0.85;;;;;;;18.58;95.20;99880.00;4994649;28;20052;-60
2022/09/09 15:37:01;;;;;;;1.20;0.70;;;;;;;18.58;92.03;99888.94;4994821;28;20038;-60
2022/09/09 15:39:26;;;;;;;1.10;0.80;;;;;;;18.64;93.62;99889.84;4994655;28;20050;-61
2022/09/09 15:41:52;;;;;;;0.93;0.80;;;;;;;18.67;95.05;99889.41;4994525;28;20046;-59
2022/09/09 15:44:18;;;;;;;0.98;0.60;;;;;;;18.64;91.60;99890.66;4994528;28;20030;-62
2022/09/09 15:46:44;;;;;;;1.15;0.77;;;;;;;18.67;93.78;99892.94;4994591;28;20038;-60
2022/09/09 15:49:15;;;;;;;3.53;0.75;;;;;;;18.55;87.97;99894.78;4994354;28;20044;-62
2022/09/09 15:51:42;;;;;;;2.88;0.80;;;;;;;18.56;87.19;99893.72;4994232;28;20053;-62
2022/09/09 15:54:09;;;;;;;0.93;0.50;;;;;;;18.51;86.01;99900.84;4994290;28;20042;-61
2022/09/09 15:56:34;;;;;;;1.55;0.73;;;;;;;18.51;84.18;99900.84;4993217;28;20088;-60
2022/09/09 15:59:02;;;;;;;1.50;0.85;;;;;;;18.48;78.26;99909.44;4994359;28;20528;-63
2022/09/09 16:01:30;;;;;;;3.67;0.70;;;;;;;18.39;79.12;99906.25;4993888;28;20065;-62
2022/09/09 16:03:56;;;;;;;1.77;0.52;;;;;;;18.36;80.80;99910.22;4994116;28;20490;-62
2022/09/09 16:06:23;;;;;;;1.40;0.90;;;;;;;18.40;78.76;99907.91;4994041;28;20508;-59
2022/09/09 16:08:51;;;;;;;1.60;0.95;;;;;;;18.30;80.63;99910.34;4994330;28;20046;-60
2022/09/09 16:11:25;;;;;;;0.80;0.50;;;;;;;18.27;77.42;99902.72;4994294;28;20034;-61